Time;durP1;ratioP1;P1;durP2;ratioP2;P2;SDS_P1;SDS_P2;PMS_P1;PMS_P2;Temp;Humidity;BMP_temperature;BMP_pressure;BME280_temperature;BME280_humidity;BME280_pressure;Samples;Min_cycle;Max_cycle;Signal;HPM_P1;HPM_P2
2021/10/22 00:02:52;;;;;;;12.68;11.38;;;;;;;;;;10298704;28;20545;-63
2021/10/22 00:07:50;;;;;;;16.65;11.82;;;;;;;;;;10311278;28;20057;-64
2021/10/22 00:12:50;;;;;;;14.77;12.00;;;;;;;;;;10315314;28;20068;-63
2021/10/22 00:17:48;;;;;;;13.60;12.15;;;;;;;;;;10307205;28;20033;-63
2021/10/22 00:22:46;;;;;;;13.07;11.75;;;;;;;;;;10304415;28;20098;-63
2021/10/22 00:27:45;;;;;;;12.98;11.68;;;;;;;;;;10303246;28;20134;-63
2021/10/22 00:32:44;;;;;;;14.55;13.07;;;;;;;;;;10317721;28;20083;-63
2021/10/22 00:37:43;;;;;;;12.65;11.25;;;;;;;;;;10316931;28;20094;-63
2021/10/22 00:42:41;;;;;;;13.05;11.75;;;;;;;;;;10314094;28;20045;-63
2021/10/22 00:47:39;;;;;;;13.60;12.18;;;;;;;;;;10318249;28;20041;-63
2021/10/22 00:52:39;;;;;;;13.45;12.13;;;;;;;;;;10319150;28;20079;-64
2021/10/22 00:57:37;;;;;;;13.60;12.30;;;;;;;;;;10318589;28;20461;-64
2021/10/22 01:02:36;;;;;;;14.57;12.60;;;;;;;;;;10317640;28;20407;-63
2021/10/22 01:07:34;;;;;;;14.65;12.88;;;;;;;;;;10318200;28;20079;-64
2021/10/22 01:12:35;;;;;;;14.45;12.95;;;;;;;;;;10316862;28;20080;-63
2021/10/22 01:17:34;;;;;;;16.10;12.88;;;;;;;;;;10317918;28;20540;-64
2021/10/22 01:22:34;;;;;;;15.25;12.40;;;;;;;;;;10295552;28;20507;-63
2021/10/22 01:27:33;;;;;;;14.77;12.35;;;;;;;;;;10263949;28;20459;-63
2021/10/22 01:32:33;;;;;;;15.73;14.07;;;;;;;;;;10302044;28;20075;-63
2021/10/22 01:37:32;;;;;;;14.70;13.13;;;;;;;;;;10302394;28;20052;-63
2021/10/22 01:42:31;;;;;;;15.48;13.90;;;;;;;;;;10303753;28;20470;-63
2021/10/22 01:47:30;;;;;;;15.85;13.02;;;;;;;;;;10297146;28;20060;-63
2021/10/22 01:52:28;;;;;;;14.75;13.35;;;;;;;;;;10296715;28;20083;-63
2021/10/22 01:57:26;;;;;;;14.35;12.23;;;;;;;;;;10314717;28;20081;-63
2021/10/22 02:02:26;;;;;;;14.82;13.20;;;;;;;;;;10314505;28;20052;-63
2021/10/22 02:07:24;;;;;;;14.90;13.50;;;;;;;;;;10303311;28;20072;-63
2021/10/22 02:12:22;;;;;;;14.38;12.77;;;;;;;;;;10300600;28;20083;-63
2021/10/22 02:17:22;;;;;;;14.40;12.93;;;;;;;;;;10290273;28;20079;-63
2021/10/22 02:22:21;;;;;;;14.85;13.07;;;;;;;;;;10305384;28;20454;-63
2021/10/22 02:27:20;;;;;;;12.32;11.13;;;;;;;;;;10313362;28;20070;-63
2021/10/22 02:32:26;;;;;;;13.98;12.70;;;;;;;;;;10298151;28;20086;-64
2021/10/22 02:37:26;;;;;;;13.73;12.05;;;;;;;;;;10296169;28;20080;-63
2021/10/22 02:42:24;;;;;;;14.60;13.10;;;;;;;;;;10309147;28;20071;-63
2021/10/22 02:47:22;;;;;;;17.60;13.60;;;;;;;;;;10305947;28;20457;-63
2021/10/22 02:52:21;;;;;;;15.25;13.75;;;;;;;;;;10298419;28;20087;-63
2021/10/22 02:57:20;;;;;;;13.52;12.23;;;;;;;;;;10304807;28;20032;-63
2021/10/22 03:02:19;;;;;;;16.55;12.85;;;;;;;;;;10308629;28;20068;-63
2021/10/22 03:07:18;;;;;;;16.48;12.15;;;;;;;;;;10308185;28;20064;-63
2021/10/22 03:12:16;;;;;;;14.80;13.23;;;;;;;;;;10313306;28;20500;-63
2021/10/22 03:17:16;;;;;;;12.38;11.18;;;;;;;;;;10312983;28;20070;-64
2021/10/22 03:22:15;;;;;;;16.23;12.60;;;;;;;;;;10313137;28;20075;-64
2021/10/22 03:27:15;;;;;;;13.15;11.75;;;;;;;;;;10299125;28;20041;-63
2021/10/22 03:32:13;;;;;;;12.90;11.52;;;;;;;;;;10295799;28;20525;-64
2021/10/22 03:37:13;;;;;;;12.35;11.15;;;;;;;;;;10292351;28;20079;-63
2021/10/22 03:42:12;;;;;;;14.02;12.32;;;;;;;;;;10292339;28;20087;-64
2021/10/22 03:47:11;;;;;;;13.13;11.50;;;;;;;;;;10300071;28;20079;-64
2021/10/22 03:52:11;;;;;;;14.90;12.00;;;;;;;;;;10318121;28;20067;-65
2021/10/22 03:57:11;;;;;;;13.43;12.02;;;;;;;;;;10321223;28;20541;-64
2021/10/22 04:02:09;;;;;;;12.23;9.95;;;;;;;;;;10309158;28;20087;-63
2021/10/22 04:07:09;;;;;;;12.65;11.38;;;;;;;;;;10303801;28;20064;-64
2021/10/22 04:12:08;;;;;;;12.18;10.90;;;;;;;;;;10306559;28;20497;-64
2021/10/22 04:17:08;;;;;;;13.07;11.25;;;;;;;;;;10307408;28;20075;-64
2021/10/22 04:22:06;;;;;;;11.52;10.10;;;;;;;;;;10318098;28;20068;-63
2021/10/22 04:27:04;;;;;;;11.20;10.18;;;;;;;;;;10318654;28;20076;-64
2021/10/22 04:32:03;;;;;;;11.60;10.40;;;;;;;;;;10321212;28;20075;-66
2021/10/22 04:37:22;;;;;;;13.45;11.25;;;;;;;;;;10305831;28;20470;-65
2021/10/22 04:42:20;;;;;;;12.25;10.32;;;;;;;;;;10303454;28;20479;-64
2021/10/22 04:47:18;;;;;;;11.15;10.05;;;;;;;;;;10303131;28;20063;-64
2021/10/22 04:52:18;;;;;;;13.95;10.57;;;;;;;;;;10301764;28;20068;-64
2021/10/22 04:57:16;;;;;;;11.32;10.18;;;;;;;;;;10312492;28;20040;-64
2021/10/22 05:02:14;;;;;;;11.80;10.60;;;;;;;;;;10301004;28;20486;-64
2021/10/22 05:07:13;;;;;;;11.60;9.70;;;;;;;;;;10295509;28;20061;-64
2021/10/22 05:12:13;;;;;;;11.45;10.10;;;;;;;;;;10287981;28;20071;-64
2021/10/22 05:17:11;;;;;;;14.68;11.02;;;;;;;;;;10290892;28;20106;-64
2021/10/22 05:22:09;;;;;;;9.93;8.98;;;;;;;;;;10273410;28;20060;-64
2021/10/22 05:27:08;;;;;;;11.10;9.80;;;;;;;;;;10255181;28;20646;-64
2021/10/22 05:32:08;;;;;;;11.82;10.57;;;;;;;;;;10250313;28;20735;-65
2021/10/22 05:37:06;;;;;;;12.25;10.52;;;;;;;;;;10278908;28;20076;-62
2021/10/22 05:42:04;;;;;;;9.73;8.70;;;;;;;;;;10224240;28;1109061;-64
2021/10/22 05:47:06;;;;;;;11.25;8.55;;;;;;;;;;10272633;28;20132;-64
2021/10/22 05:52:06;;;;;;;9.63;8.63;;;;;;;;;;10283332;28;20068;-63
2021/10/22 05:57:04;;;;;;;11.90;9.13;;;;;;;;;;10269870;28;20132;-64
2021/10/22 06:02:03;;;;;;;10.88;9.75;;;;;;;;;;10282336;28;20529;-64
2021/10/22 06:07:01;;;;;;;12.75;9.18;;;;;;;;;;10277428;28;20057;-65
2021/10/22 06:12:01;;;;;;;11.27;9.13;;;;;;;;;;10297544;28;20056;-65
2021/10/22 06:17:01;;;;;;;11.85;8.65;;;;;;;;;;10295196;28;20071;-63
2021/10/22 06:22:19;;;;;;;12.38;8.25;;;;;;;;;;10290891;28;20514;-63
2021/10/22 06:27:19;;;;;;;11.35;9.00;;;;;;;;;;10284987;28;20072;-64
2021/10/22 06:32:18;;;;;;;10.70;8.75;;;;;;;;;;10297799;28;20063;-64
2021/10/22 06:37:16;;;;;;;14.05;10.35;;;;;;;;;;10296696;28;20064;-63
2021/10/22 06:42:14;;;;;;;13.48;8.48;;;;;;;;;;10293530;28;20078;-65
2021/10/22 06:47:14;;;;;;;11.27;8.77;;;;;;;;;;10287209;28;20510;-64
2021/10/22 06:52:13;;;;;;;12.13;8.35;;;;;;;;;;10294343;28;20064;-64
2021/10/22 06:57:11;;;;;;;9.60;8.02;;;;;;;;;;10295292;28;20076;-64
2021/10/22 07:02:09;;;;;;;12.05;8.32;;;;;;;;;;10311386;28;20063;-64
2021/10/22 07:07:15;;;;;;;10.85;8.73;;;;;;;;;;10310956;28;20047;-64
2021/10/22 07:12:14;;;;;;;10.40;7.80;;;;;;;;;;10313240;28;20075;-64
2021/10/22 07:17:12;;;;;;;10.07;7.40;;;;;;;;;;10310226;28;20068;-64
2021/10/22 07:22:14;;;;;;;9.32;7.70;;;;;;;;;;10312406;28;20479;-65
2021/10/22 07:27:12;;;;;;;12.98;8.70;;;;;;;;;;10312417;28;20071;-64
2021/10/22 07:32:11;;;;;;;9.65;8.45;;;;;;;;;;10309747;28;20044;-65
2021/10/22 07:37:17;;;;;;;8.77;7.88;;;;;;;;;;10312434;28;20454;-65
2021/10/22 07:42:16;;;;;;;9.88;8.15;;;;;;;;;;10298403;28;20072;-65
2021/10/22 07:47:23;;;;;;;10.73;8.05;;;;;;;;;;10288072;28;20083;-66
2021/10/22 07:52:24;;;;;;;10.95;8.43;;;;;;;;;;10293887;28;20063;-65
2021/10/22 07:57:23;;;;;;;9.00;6.95;;;;;;;;;;10287895;28;20071;-65
2021/10/22 08:02:22;;;;;;;8.20;7.40;;;;;;;;;;10294026;28;20442;-64
2021/10/22 08:07:21;;;;;;;11.23;8.25;;;;;;;;;;10289223;28;20110;-65
2021/10/22 08:12:21;;;;;;;18.42;12.98;;;;;;;;;;10296986;28;20497;-65
2021/10/22 08:17:20;;;;;;;12.20;8.05;;;;;;;;;;10289638;28;20068;-65
2021/10/22 08:22:29;;;;;;;10.15;8.07;;;;;;;;;;10290017;28;20060;-65
2021/10/22 08:27:30;;;;;;;9.82;8.13;;;;;;;;;;10288565;28;20068;-65
2021/10/22 08:32:29;;;;;;;14.43;7.28;;;;;;;;;;10299425;28;20064;-65
2021/10/22 08:37:27;;;;;;;10.30;8.70;;;;;;;;;;10301538;28;20068;-65
2021/10/22 08:42:26;;;;;;;10.82;7.35;;;;;;;;;;10302085;28;20343;-65
2021/10/22 08:47:26;;;;;;;12.85;8.68;;;;;;;;;;10295215;28;20079;-66
2021/10/22 08:52:26;;;;;;;12.18;9.27;;;;;;;;;;10302960;28;20072;-65
2021/10/22 08:57:24;;;;;;;9.73;7.88;;;;;;;;;;10263342;28;20077;-65
2021/10/22 09:02:25;;;;;;;17.20;7.18;;;;;;;;;;10313164;28;20100;-65
2021/10/22 09:07:39;;;;;;;9.82;7.63;;;;;;;;;;10315951;28;20060;-66
2021/10/22 09:12:42;;;;;;;9.35;7.68;;;;;;;;;;10317630;28;20071;-65
2021/10/22 09:17:41;;;;;;;6.13;5.53;;;;;;;;;;10312738;28;20469;-65
2021/10/22 09:22:42;;;;;;;7.13;6.20;;;;;;;;;;10310360;28;20068;-65
2021/10/22 09:27:43;;;;;;;5.85;4.93;;;;;;;;;;10235515;28;20072;-65
2021/10/22 09:32:46;;;;;;;7.10;5.50;;;;;;;;;;10247672;28;20301;-66
2021/10/22 09:37:47;;;;;;;7.85;5.68;;;;;;;;;;10316097;28;20082;-65
2021/10/22 09:42:49;;;;;;;9.00;6.53;;;;;;;;;;10310411;28;20072;-64
2021/10/22 09:47:48;;;;;;;8.77;6.13;;;;;;;;;;10315689;28;20083;-64
2021/10/22 09:52:47;;;;;;;8.40;6.55;;;;;;;;;;10315671;28;20075;-64
2021/10/22 09:57:46;;;;;;;6.80;6.00;;;;;;;;;;10315311;28;20087;-65
2021/10/22 10:02:45;;;;;;;7.45;5.40;;;;;;;;;;10315680;28;20509;-65
2021/10/22 10:07:45;;;;;;;11.18;7.28;;;;;;;;;;10313198;28;20071;-65
2021/10/22 10:12:46;;;;;;;6.80;6.07;;;;;;;;;;10315093;28;20088;-64
2021/10/22 10:17:46;;;;;;;10.40;6.55;;;;;;;;;;10315032;28;20452;-64
2021/10/22 10:22:46;;;;;;;11.98;6.95;;;;;;;;;;10314736;28;20072;-65
2021/10/22 10:27:50;;;;;;;11.75;6.93;;;;;;;;;;10312674;28;20040;-66
2021/10/22 10:32:49;;;;;;;7.50;6.80;;;;;;;;;;10313976;28;20060;-64
2021/10/22 10:37:48;;;;;;;9.38;7.28;;;;;;;;;;10313779;28;20083;-65
2021/10/22 10:42:47;;;;;;;11.13;7.35;;;;;;;;;;10313528;28;20067;-65
2021/10/22 10:47:48;;;;;;;14.25;7.82;;;;;;;;;;10313138;28;20482;-65
2021/10/22 10:52:51;;;;;;;12.30;7.82;;;;;;;;;;10313302;28;20067;-65
2021/10/22 10:57:52;;;;;;;9.48;6.97;;;;;;;;;;10311466;28;20044;-64
2021/10/22 11:03:08;;;;;;;7.07;6.32;;;;;;;;;;10313034;28;20079;-64
2021/10/22 11:08:12;;;;;;;8.52;6.55;;;;;;;;;;10312867;28;20056;-65
2021/10/22 11:13:13;;;;;;;7.67;6.77;;;;;;;;;;10312889;28;20060;-64
2021/10/22 11:18:14;;;;;;;8.75;6.85;;;;;;;;;;10313094;28;20140;-65
2021/10/22 11:23:37;;;;;;;9.57;6.55;;;;;;;;;;10312630;28;20068;-63
2021/10/22 11:28:35;;;;;;;6.93;5.93;;;;;;;;;;10312739;28;20086;-63
2021/10/22 11:33:35;;;;;;;7.80;5.45;;;;;;;;;;10312448;28;20064;-64
2021/10/22 11:38:33;;;;;;;7.88;4.63;;;;;;;;;;10312269;28;20562;-64
2021/10/22 11:43:32;;;;;;;9.77;5.38;;;;;;;;;;10310619;28;20043;-64
2021/10/22 11:48:31;;;;;;;6.07;5.47;;;;;;;;;;10312093;28;20575;-64
2021/10/22 11:53:31;;;;;;;8.15;5.07;;;;;;;;;;10312178;28;20072;-64
2021/10/22 11:58:34;;;;;;;11.88;5.82;;;;;;;;;;10312084;28;20075;-65
2021/10/22 12:03:33;;;;;;;9.00;4.50;;;;;;;;;;10312166;28;20064;-65
2021/10/22 12:08:32;;;;;;;6.00;4.35;;;;;;;;;;10314140;28;20075;-65
2021/10/22 12:13:32;;;;;;;11.23;4.35;;;;;;;;;;10319739;28;20068;-64
2021/10/22 12:18:31;;;;;;;5.80;4.43;;;;;;;;;;10318276;28;20079;-64
2021/10/22 12:23:30;;;;;;;9.52;5.38;;;;;;;;;;10319358;28;20087;-65
2021/10/22 12:28:29;;;;;;;7.07;5.40;;;;;;;;;;10319061;28;20067;-64
2021/10/22 12:33:28;;;;;;;5.93;4.72;;;;;;;;;;10318251;28;20052;-65
2021/10/22 12:38:28;;;;;;;6.45;4.78;;;;;;;;;;10318330;28;20110;-64
2021/10/22 12:43:28;;;;;;;15.30;11.50;;;;;;;;;;10313831;28;20040;-65
2021/10/22 12:48:29;;;;;;;8.95;7.15;;;;;;;;;;10318336;28;20039;-65
2021/10/22 12:53:30;;;;;;;9.52;6.30;;;;;;;;;;10315888;28;20060;-65
2021/10/22 12:58:28;;;;;;;12.02;5.07;;;;;;;;;;10317387;28;20072;-64
2021/10/22 13:03:30;;;;;;;11.60;6.10;;;;;;;;;;10318049;28;20147;-64
2021/10/22 13:08:39;;;;;;;11.70;8.40;;;;;;;;;;10315294;28;20498;-64
2021/10/22 13:24:18;;;;;;;8.82;5.47;;;;;;;;;;10387153;28;20071;-64
2021/10/22 13:29:17;;;;;;;5.05;4.07;;;;;;;;;;10389087;28;20047;-64
2021/10/22 13:34:17;;;;;;;11.80;6.45;;;;;;;;;;10387457;28;20500;-64
2021/10/22 13:39:15;;;;;;;9.73;5.55;;;;;;;;;;10386411;28;20512;-65
2021/10/22 13:44:13;;;;;;;6.68;5.03;;;;;;;;;;10388414;28;20067;-64
2021/10/22 13:49:12;;;;;;;12.73;7.40;;;;;;;;;;10388269;28;20070;-64
2021/10/22 13:54:11;;;;;;;9.57;5.20;;;;;;;;;;10386534;28;20068;-64
2021/10/22 13:59:10;;;;;;;7.47;4.70;;;;;;;;;;10387494;28;20075;-64
2021/10/22 14:04:08;;;;;;;7.07;4.93;;;;;;;;;;10387528;28;20097;-65
2021/10/22 14:09:06;;;;;;;8.15;5.93;;;;;;;;;;10387515;28;20072;-64
2021/10/22 14:14:14;;;;;;;5.25;4.63;;;;;;;;;;10387155;28;20409;-64
2021/10/22 14:19:30;;;;;;;12.55;7.63;;;;;;;;;;10383037;28;20086;-64
2021/10/22 14:24:42;;;;;;;17.30;15.50;;;;;;;;;;10381662;28;20059;-63
2021/10/22 14:29:43;;;;;;;24.30;17.73;;;;;;;;;;10357892;28;20446;-64
2021/10/22 14:34:41;;;;;;;44.22;31.95;;;;;;;;;;10354553;28;20063;-64
2021/10/22 14:39:40;;;;;;;24.48;19.65;;;;;;;;;;10353725;28;20076;-64
2021/10/22 14:44:43;;;;;;;35.97;31.27;;;;;;;;;;10358749;28;20068;-65
2021/10/22 14:49:44;;;;;;;39.25;31.05;;;;;;;;;;10358553;28;20075;-64
2021/10/22 14:54:45;;;;;;;34.30;25.73;;;;;;;;;;10356596;28;20082;-65
2021/10/22 14:59:45;;;;;;;44.88;32.10;;;;;;;;;;10358721;28;20077;-64
2021/10/22 15:04:44;;;;;;;19.38;15.45;;;;;;;;;;10358384;28;20075;-65
2021/10/22 15:09:42;;;;;;;37.88;24.20;;;;;;;;;;10356530;28;20493;-65
2021/10/22 15:14:41;;;;;;;12.15;8.88;;;;;;;;;;10357379;28;20094;-65
2021/10/22 15:19:42;;;;;;;12.55;8.77;;;;;;;;;;10357201;28;20499;-65
2021/10/22 15:24:40;;;;;;;21.27;12.40;;;;;;;;;;10357319;28;20143;-65
2021/10/22 15:29:39;;;;;;;29.15;22.05;;;;;;;;;;10356982;28;20060;-64
2021/10/22 15:34:37;;;;;;;37.28;26.35;;;;;;;;;;10356837;28;20064;-65
2021/10/22 15:39:37;;;;;;;35.17;25.92;;;;;;;;;;10355388;28;20071;-64
2021/10/22 15:44:35;;;;;;;30.38;24.08;;;;;;;;;;10355838;28;20105;-64
2021/10/22 15:49:34;;;;;;;17.33;14.52;;;;;;;;;;10356359;28;20425;-64
2021/10/22 15:54:32;;;;;;;24.80;17.15;;;;;;;;;;10353557;28;20078;-64
2021/10/22 15:59:32;;;;;;;20.60;15.93;;;;;;;;;;10355826;28;20094;-65
2021/10/22 16:04:30;;;;;;;17.65;13.95;;;;;;;;;;10355548;28;20074;-64
2021/10/22 16:09:31;;;;;;;16.80;12.73;;;;;;;;;;10355380;28;20090;-64
2021/10/22 16:14:49;;;;;;;21.15;17.65;;;;;;;;;;10355009;28;20091;-65
2021/10/22 16:19:48;;;;;;;11.10;9.73;;;;;;;;;;10354909;28;20071;-64
2021/10/22 16:24:46;;;;;;;11.38;9.30;;;;;;;;;;10355138;28;20075;-64
2021/10/22 16:29:47;;;;;;;14.02;9.98;;;;;;;;;;10354724;28;20085;-64
2021/10/22 16:40:02;;;;;;;15.02;13.05;;;;;;;;;;10343518;28;20079;-61
2021/10/22 16:45:03;;;;;;;18.00;14.85;;;;;;;;;;10348034;28;20481;-65
2021/10/22 16:50:01;;;;;;;12.75;10.98;;;;;;;;;;10352134;28;20504;-63
2021/10/22 16:55:23;;;;;;;14.82;10.13;;;;;;;;;;10353619;28;20075;-64
2021/10/22 17:00:24;;;;;;;13.07;9.68;;;;;;;;;;10351911;28;20094;-63
2021/10/22 17:05:25;;;;;;;14.70;10.68;;;;;;;;;;10351806;28;20047;-63
2021/10/22 17:10:24;;;;;;;12.45;9.55;;;;;;;;;;10351516;28;20130;-63
2021/10/22 17:15:24;;;;;;;11.25;9.05;;;;;;;;;;10350794;28;20083;-64
2021/10/22 17:20:23;;;;;;;9.48;8.55;;;;;;;;;;10351124;28;20535;-63
2021/10/22 17:25:21;;;;;;;12.63;9.60;;;;;;;;;;10353513;28;20068;-63
2021/10/22 17:30:20;;;;;;;12.90;8.70;;;;;;;;;;10352863;28;20091;-63
2021/10/22 17:35:19;;;;;;;13.18;11.75;;;;;;;;;;10353340;28;20075;-63
2021/10/22 17:40:18;;;;;;;13.65;10.50;;;;;;;;;;10353676;28;20067;-64
2021/10/22 17:45:16;;;;;;;14.77;9.10;;;;;;;;;;10350643;28;20037;-64
2021/10/22 17:50:15;;;;;;;10.57;8.63;;;;;;;;;;10353838;28;20060;-64
2021/10/22 17:55:16;;;;;;;12.18;9.07;;;;;;;;;;10353205;28;20048;-64
2021/10/22 18:00:15;;;;;;;14.43;9.75;;;;;;;;;;10352573;28;20080;-64
2021/10/22 18:05:14;;;;;;;9.18;8.38;;;;;;;;;;10359402;28;20101;-64
2021/10/22 18:10:13;;;;;;;15.10;10.30;;;;;;;;;;10360378;28;20090;-65
2021/10/22 18:15:13;;;;;;;15.40;10.35;;;;;;;;;;10360421;28;20071;-64
2021/10/22 18:20:11;;;;;;;12.30;7.40;;;;;;;;;;10360235;28;20079;-64
2021/10/22 18:25:10;;;;;;;11.25;7.65;;;;;;;;;;10357960;28;20079;-65
2021/10/22 18:30:10;;;;;;;11.02;8.15;;;;;;;;;;10359178;28;20493;-65
2021/10/22 18:35:11;;;;;;;13.27;8.77;;;;;;;;;;10359009;28;20044;-64
2021/10/22 18:40:10;;;;;;;11.63;8.52;;;;;;;;;;10359154;28;20076;-64
2021/10/22 18:45:08;;;;;;;12.07;7.07;;;;;;;;;;10358318;28;20068;-63
2021/10/22 18:50:09;;;;;;;10.88;6.75;;;;;;;;;;10358978;28;20485;-63
2021/10/22 18:55:11;;;;;;;7.93;6.70;;;;;;;;;;10356181;28;20082;-64
2021/10/22 19:00:10;;;;;;;11.23;7.45;;;;;;;;;;10354275;28;20531;-63
2021/10/22 19:05:12;;;;;;;17.73;12.18;;;;;;;;;;10346731;28;20079;-63
2021/10/22 19:10:12;;;;;;;7.25;6.53;;;;;;;;;;10353586;28;20059;-64
2021/10/22 19:15:11;;;;;;;8.05;7.25;;;;;;;;;;10348169;28;20084;-63
2021/10/22 19:20:10;;;;;;;9.63;7.28;;;;;;;;;;10355015;28;20079;-63
2021/10/22 19:25:10;;;;;;;8.75;7.88;;;;;;;;;;10356622;28;20044;-63
2021/10/22 19:30:10;;;;;;;9.50;6.50;;;;;;;;;;10352069;28;20080;-63
2021/10/22 19:35:09;;;;;;;14.57;7.63;;;;;;;;;;10351616;28;20067;-63
2021/10/22 19:40:07;;;;;;;11.30;7.30;;;;;;;;;;10350243;28;20079;-63
2021/10/22 19:45:07;;;;;;;7.90;7.20;;;;;;;;;;10346168;28;20071;-63
2021/10/22 19:50:14;;;;;;;8.95;7.05;;;;;;;;;;10349014;28;20352;-61
2021/10/22 19:55:12;;;;;;;8.43;6.40;;;;;;;;;;10344325;28;20068;-62
2021/10/22 20:00:11;;;;;;;7.07;6.38;;;;;;;;;;10346638;28;20249;-62
2021/10/22 20:05:11;;;;;;;11.07;6.70;;;;;;;;;;10345730;28;20068;-63
2021/10/22 20:10:09;;;;;;;8.38;6.47;;;;;;;;;;10356660;28;20063;-62
2021/10/22 20:15:08;;;;;;;6.97;6.28;;;;;;;;;;10355453;28;20090;-62
2021/10/22 20:20:07;;;;;;;6.30;5.70;;;;;;;;;;10349463;28;20091;-64
2021/10/22 20:25:07;;;;;;;6.75;5.82;;;;;;;;;;10350571;28;20028;-64
2021/10/22 20:30:07;;;;;;;6.88;6.03;;;;;;;;;;10354664;28;20070;-64
2021/10/22 20:35:06;;;;;;;7.38;6.63;;;;;;;;;;10353630;28;20036;-64
2021/10/22 20:40:10;;;;;;;10.63;6.18;;;;;;;;;;10355146;28;20102;-63
2021/10/22 20:45:10;;;;;;;14.13;5.78;;;;;;;;;;10333365;28;20075;-62
2021/10/22 20:56:03;;;;;;;6.47;5.53;;;;;;;;;;10337950;28;20083;-65
2021/10/22 21:00:57;;;;;;;6.80;5.95;;;;;;;;;;10348120;28;20071;-62
2021/10/22 21:05:56;;;;;;;9.93;5.57;;;;;;;;;;10348525;28;20075;-62
2021/10/22 21:10:54;;;;;;;7.22;5.50;;;;;;;;;;10352514;28;20075;-61
2021/10/22 21:15:53;;;;;;;6.88;5.80;;;;;;;;;;10344722;28;20072;-61
2021/10/22 21:20:53;;;;;;;9.73;5.70;;;;;;;;;;10347798;28;20067;-60
2021/10/22 21:25:52;;;;;;;6.57;5.85;;;;;;;;;;10352885;28;20044;-61
2021/10/22 21:30:51;;;;;;;7.97;5.93;;;;;;;;;;10354980;28;20051;-62
2021/10/22 21:35:49;;;;;;;6.78;5.78;;;;;;;;;;10355013;28;20040;-62
2021/10/22 21:40:49;;;;;;;7.05;5.55;;;;;;;;;;10362809;28;20523;-62
2021/10/22 21:45:47;;;;;;;9.00;5.38;;;;;;;;;;10361985;28;20067;-62
2021/10/22 21:50:47;;;;;;;9.23;5.80;;;;;;;;;;10361901;28;20063;-63
2021/10/22 21:55:46;;;;;;;8.48;5.85;;;;;;;;;;10362424;28;20489;-62
2021/10/22 22:00:46;;;;;;;6.40;4.90;;;;;;;;;;10361920;28;20067;-62
2021/10/22 22:05:44;;;;;;;6.70;5.28;;;;;;;;;;10362095;28;20040;-62
2021/10/22 22:10:43;;;;;;;8.82;5.32;;;;;;;;;;10362094;28;20040;-62
2021/10/22 22:15:41;;;;;;;6.35;5.75;;;;;;;;;;10361567;28;20064;-63
2021/10/22 22:20:41;;;;;;;6.45;5.20;;;;;;;;;;10359330;28;20068;-63
2021/10/22 22:25:39;;;;;;;8.63;5.70;;;;;;;;;;10358122;28;20556;-62
2021/10/22 22:30:38;;;;;;;8.32;5.80;;;;;;;;;;10360793;28;20055;-64
2021/10/22 22:35:36;;;;;;;7.18;5.75;;;;;;;;;;10361040;28;20063;-64
2021/10/22 22:40:36;;;;;;;6.25;5.65;;;;;;;;;;10358123;28;20071;-64
2021/10/22 22:45:34;;;;;;;6.40;5.30;;;;;;;;;;10355824;28;20067;-63
2021/10/22 22:50:33;;;;;;;8.32;5.45;;;;;;;;;;10355782;28;20075;-63
2021/10/22 22:55:31;;;;;;;6.03;5.32;;;;;;;;;;10358103;28;20101;-62
2021/10/22 23:00:31;;;;;;;6.45;5.35;;;;;;;;;;10358128;28;20063;-63
2021/10/22 23:05:35;;;;;;;5.95;5.35;;;;;;;;;;10356072;28;20063;-63
2021/10/22 23:10:33;;;;;;;9.05;6.20;;;;;;;;;;10358209;28;20039;-63
2021/10/22 23:15:33;;;;;;;9.00;6.70;;;;;;;;;;10355341;28;20082;-63
2021/10/22 23:20:31;;;;;;;8.05;6.10;;;;;;;;;;10354136;28;20075;-63
2021/10/22 23:25:31;;;;;;;6.90;6.05;;;;;;;;;;10356486;28;20040;-62
2021/10/22 23:30:29;;;;;;;6.97;6.15;;;;;;;;;;10356728;28;20071;-63
2021/10/22 23:35:29;;;;;;;7.10;6.45;;;;;;;;;;10356720;28;20469;-63
2021/10/22 23:40:27;;;;;;;6.65;5.78;;;;;;;;;;10357012;28;20075;-63
2021/10/22 23:45:25;;;;;;;6.57;5.28;;;;;;;;;;10355647;28;20080;-63
2021/10/22 23:50:24;;;;;;;7.90;6.38;;;;;;;;;;10355828;28;20458;-62
2021/10/22 23:55:23;;;;;;;7.25;5.90;;;;;;;;;;10356159;28;20072;-63
